createdAt,value
2022-10-16T00:01:07.490Z,63.72
2022-10-16T00:03:34.315Z,64.08
2022-10-16T00:06:02.003Z,64.29
2022-10-16T00:08:28.798Z,64.02
2022-10-16T00:11:00.467Z,64.68
2022-10-16T00:13:29.756Z,65.00
2022-10-16T00:15:56.747Z,64.71
2022-10-16T00:18:23.211Z,64.45
2022-10-16T00:20:49.712Z,63.04
2022-10-16T00:23:16.201Z,63.32
2022-10-16T00:25:42.632Z,62.71
2022-10-16T00:28:09.158Z,62.63
2022-10-16T00:30:38.786Z,62.50
2022-10-16T00:33:05.255Z,64.11
2022-10-16T00:35:31.844Z,62.20
2022-10-16T00:37:58.308Z,61.88
2022-10-16T00:40:24.718Z,62.90
2022-10-16T00:42:51.115Z,64.45
2022-10-16T00:45:17.608Z,63.72
2022-10-16T00:47:47.663Z,63.63
2022-10-16T00:50:19.043Z,65.01
2022-10-16T00:52:49.181Z,63.66
2022-10-16T00:55:15.786Z,63.24
2022-10-16T00:57:43.145Z,62.93
2022-10-16T01:00:12.364Z,64.82
2022-10-16T01:02:38.827Z,65.04
2022-10-16T01:05:07.293Z,65.68
2022-10-16T01:07:44.253Z,64.60
2022-10-16T01:10:21.395Z,64.02
2022-10-16T01:12:52.583Z,64.72
2022-10-16T01:15:25.999Z,65.04
2022-10-16T01:17:58.076Z,65.45
2022-10-16T01:20:29.975Z,65.50
2022-10-16T01:23:08.682Z,65.31
2022-10-16T01:25:56.963Z,65.38
2022-10-16T01:28:31.684Z,65.80
2022-10-16T01:31:00.484Z,65.81
2022-10-16T01:33:31.373Z,66.14
2022-10-16T01:36:03.548Z,65.20
2022-10-16T01:38:35.102Z,66.00
2022-10-16T01:41:05.491Z,66.54
2022-10-16T01:43:37.234Z,67.38
2022-10-16T01:46:04.082Z,67.40
2022-10-16T01:48:33.381Z,67.79
2022-10-16T01:51:06.404Z,66.76
2022-10-16T01:53:34.410Z,68.43
2022-10-16T01:56:03.051Z,68.06
2022-10-16T01:58:31.328Z,67.49
2022-10-16T02:00:59.212Z,68.20
2022-10-16T02:03:25.838Z,68.63
2022-10-16T02:05:54.876Z,67.73
2022-10-16T02:08:23.635Z,68.35
2022-10-16T02:10:50.168Z,68.09
2022-10-16T02:13:22.807Z,67.29
2022-10-16T02:15:49.333Z,68.21
2022-10-16T02:18:17.119Z,68.69
2022-10-16T02:20:49.674Z,68.80
2022-10-16T02:23:23.247Z,67.85
2022-10-16T02:25:51.527Z,70.44
2022-10-16T02:28:21.382Z,70.78
2022-10-16T02:30:51.298Z,69.62
2022-10-16T02:33:22.567Z,70.08
2022-10-16T02:35:50.256Z,70.63
2022-10-16T02:38:18.294Z,69.96
2022-10-16T02:40:46.653Z,70.85
2022-10-16T02:43:13.868Z,70.44
2022-10-16T02:45:40.418Z,70.40
2022-10-16T02:48:07.391Z,69.36
2022-10-16T02:50:35.184Z,69.48
2022-10-16T02:53:01.891Z,68.99
2022-10-16T02:55:28.393Z,69.37
2022-10-16T02:57:55.450Z,68.95
2022-10-16T03:00:22.355Z,69.79
2022-10-16T03:02:48.929Z,71.34
2022-10-16T03:05:15.625Z,72.61
2022-10-16T03:07:43.612Z,71.39
2022-10-16T03:10:10.094Z,71.53
2022-10-16T03:12:36.483Z,71.80
2022-10-16T03:15:05.353Z,72.25
2022-10-16T03:17:32.905Z,71.97
2022-10-16T03:19:59.327Z,71.89
2022-10-16T03:22:25.769Z,71.01
2022-10-16T03:24:53.517Z,72.01
2022-10-16T03:27:20.072Z,73.16
2022-10-16T03:29:46.463Z,71.47
2022-10-16T03:32:12.887Z,71.62
2022-10-16T03:34:39.428Z,72.45
2022-10-16T03:37:05.888Z,72.07
2022-10-16T03:39:32.374Z,72.23
2022-10-16T03:42:00.132Z,71.69
2022-10-16T03:44:26.597Z,72.60
2022-10-16T03:46:53.001Z,72.96
2022-10-16T03:49:19.408Z,73.57
2022-10-16T03:51:45.823Z,73.27
2022-10-16T03:54:12.216Z,73.20
2022-10-16T03:56:38.949Z,72.74
2022-10-16T03:59:06.746Z,72.48
2022-10-16T04:01:33.264Z,73.46
2022-10-16T04:03:59.748Z,72.63
2022-10-16T04:06:26.159Z,72.49
2022-10-16T04:08:52.596Z,72.13
2022-10-16T04:11:19.050Z,72.72
2022-10-16T04:13:45.505Z,71.99
2022-10-16T04:16:13.271Z,73.35
2022-10-16T04:18:39.668Z,73.58
2022-10-16T04:21:07.233Z,72.22
2022-10-16T04:23:33.824Z,73.29
2022-10-16T04:26:00.503Z,73.03
2022-10-16T04:28:27.019Z,72.71
2022-10-16T04:30:53.731Z,72.75
2022-10-16T04:33:21.543Z,73.29
2022-10-16T04:35:57.713Z,73.35
2022-10-16T04:38:24.202Z,72.22
2022-10-16T04:40:50.571Z,73.78
2022-10-16T04:43:17.097Z,73.90
2022-10-16T04:45:43.560Z,74.53
2022-10-16T04:48:09.989Z,74.66
2022-10-16T04:50:37.947Z,73.47
2022-10-16T04:53:04.370Z,75.30
2022-10-16T04:55:30.900Z,75.20
2022-10-16T04:57:57.292Z,73.51
2022-10-16T05:00:23.749Z,73.25
2022-10-16T05:02:50.734Z,74.82
2022-10-16T05:05:17.349Z,73.73
2022-10-16T05:07:45.101Z,75.43
2022-10-16T05:10:11.496Z,76.85
2022-10-16T05:12:37.951Z,76.31
2022-10-16T05:15:05.938Z,75.71
2022-10-16T05:17:32.374Z,75.56
2022-10-16T05:19:58.792Z,76.34
2022-10-16T05:22:25.241Z,76.05
2022-10-16T05:24:53.072Z,75.46
2022-10-16T05:27:19.480Z,75.09
2022-10-16T05:29:46.009Z,75.64
2022-10-16T05:32:12.442Z,75.62
2022-10-16T05:34:39.141Z,75.78
2022-10-16T05:37:05.960Z,73.88
2022-10-16T05:39:32.388Z,73.53
2022-10-16T05:42:00.169Z,76.33
2022-10-16T05:44:26.592Z,75.50
2022-10-16T05:46:53.019Z,73.54
2022-10-16T05:49:19.480Z,75.06
2022-10-16T05:51:45.902Z,75.33
2022-10-16T05:54:12.335Z,74.13
2022-10-16T05:56:38.857Z,74.76
2022-10-16T05:59:06.987Z,74.71
2022-10-16T06:01:33.957Z,73.84
2022-10-16T06:04:00.550Z,73.95
2022-10-16T06:06:28.287Z,74.79
2022-10-16T06:08:55.763Z,76.28
2022-10-16T06:11:23.736Z,76.17
2022-10-16T06:13:51.269Z,75.99
2022-10-16T06:16:19.857Z,77.43
2022-10-16T06:18:46.784Z,75.57
2022-10-16T06:21:16.764Z,77.11
2022-10-16T06:23:43.808Z,75.86
2022-10-16T06:26:13.014Z,76.96
2022-10-16T06:28:39.973Z,76.05
2022-10-16T06:31:08.777Z,75.84
2022-10-16T06:33:37.577Z,74.76
2022-10-16T06:36:05.518Z,74.23
2022-10-16T06:38:32.334Z,75.68
2022-10-16T06:40:59.384Z,73.00
2022-10-16T06:43:26.302Z,73.24
2022-10-16T06:45:53.315Z,72.50
2022-10-16T06:48:19.855Z,73.06
2022-10-16T06:50:57.654Z,72.09
2022-10-16T06:53:24.520Z,72.81
2022-10-16T06:55:51.899Z,73.79
2022-10-16T06:58:18.301Z,74.12
2022-10-16T07:00:44.732Z,72.78
2022-10-16T07:03:11.278Z,72.67
2022-10-16T07:05:38.886Z,71.74
2022-10-16T07:08:06.855Z,71.68
2022-10-16T07:10:33.662Z,71.93
2022-10-16T07:13:00.107Z,71.39
2022-10-16T07:15:27.492Z,70.90
2022-10-16T07:17:54.194Z,69.94
2022-10-16T07:20:20.846Z,69.49
2022-10-16T07:22:47.275Z,71.47
2022-10-16T07:25:15.300Z,71.33
2022-10-16T07:27:41.749Z,70.56
2022-10-16T07:30:09.221Z,73.22
2022-10-16T07:32:35.807Z,72.50
2022-10-16T07:35:02.308Z,72.84
2022-10-16T07:37:29.131Z,72.04
2022-10-16T07:39:55.867Z,71.03
2022-10-16T07:42:23.582Z,71.14
2022-10-16T07:44:50.009Z,72.92
2022-10-16T07:47:16.475Z,70.16
2022-10-16T07:49:42.897Z,68.48
2022-10-16T07:52:09.313Z,68.92
2022-10-16T07:54:35.723Z,69.13
2022-10-16T07:57:02.173Z,65.85
2022-10-16T07:59:29.935Z,66.11
2022-10-16T08:01:56.373Z,66.13
2022-10-16T08:04:22.808Z,67.18
2022-10-16T08:06:49.214Z,64.36
2022-10-16T08:09:15.704Z,63.89
2022-10-16T08:11:42.104Z,64.56
2022-10-16T08:14:08.501Z,64.48
2022-10-16T08:16:36.258Z,63.62
2022-10-16T08:19:02.962Z,64.58
2022-10-16T08:21:29.439Z,63.89
2022-10-16T08:23:57.262Z,64.40
2022-10-16T08:26:26.040Z,64.52
2022-10-16T08:28:52.551Z,66.63
2022-10-16T08:31:21.169Z,65.10
2022-10-16T08:33:49.330Z,64.69
2022-10-16T08:36:16.963Z,65.70
2022-10-16T08:38:43.612Z,66.41
2022-10-16T08:41:23.802Z,65.11
2022-10-16T08:44:20.926Z,65.64
2022-10-16T08:46:54.165Z,66.57
2022-10-16T08:49:22.199Z,68.36
2022-10-16T08:51:48.782Z,66.75
2022-10-16T08:54:26.908Z,64.78
2022-10-16T08:56:55.525Z,64.42
2022-10-16T08:59:21.922Z,64.40
2022-10-16T09:01:51.604Z,63.74
2022-10-16T09:04:55.622Z,63.04
2022-10-16T09:07:33.485Z,64.37
2022-10-16T09:10:18.790Z,64.19
2022-10-16T09:12:53.779Z,63.28
2022-10-16T09:15:29.761Z,63.07
2022-10-16T09:18:02.184Z,62.57
2022-10-16T09:20:39.671Z,64.09
2022-10-16T09:23:17.474Z,63.74
2022-10-16T09:25:48.505Z,63.93
2022-10-16T09:28:15.528Z,61.88
2022-10-16T09:30:42.111Z,63.01
2022-10-16T09:33:10.931Z,62.53
2022-10-16T09:35:41.516Z,61.73
2022-10-16T09:38:08.826Z,61.96
2022-10-16T09:40:38.823Z,60.90
2022-10-16T09:43:19.609Z,61.62
2022-10-16T09:45:55.056Z,61.84
2022-10-16T09:48:21.761Z,61.83
2022-10-16T09:50:58.396Z,62.12
2022-10-16T09:53:24.988Z,61.72
2022-10-16T09:55:52.814Z,59.59
2022-10-16T09:58:22.531Z,59.17
2022-10-16T10:00:53.962Z,58.64
2022-10-16T10:03:34.828Z,58.28
2022-10-16T10:06:15.628Z,57.63
2022-10-16T10:08:42.099Z,56.52
2022-10-16T10:11:11.572Z,56.68
2022-10-16T10:13:41.670Z,56.06
2022-10-16T10:16:08.155Z,56.08
2022-10-16T10:18:34.617Z,55.87
2022-10-16T10:23:31.481Z,55.59
2022-10-16T10:26:05.220Z,55.97
2022-10-16T10:28:50.466Z,54.99
2022-10-16T10:31:23.644Z,55.28
2022-10-16T10:33:56.701Z,54.20
2022-10-16T10:36:30.444Z,54.54
2022-10-16T10:38:59.872Z,54.05
2022-10-16T10:41:59.344Z,54.04
2022-10-16T10:44:38.306Z,53.12
2022-10-16T10:47:11.916Z,53.67
2022-10-16T10:49:49.780Z,53.95
2022-10-16T10:52:38.174Z,53.15
2022-10-16T10:55:14.320Z,54.43
2022-10-16T10:57:51.625Z,52.44
2022-10-16T11:00:23.491Z,52.13
2022-10-16T11:03:00.111Z,52.79
2022-10-16T11:05:41.338Z,54.02
2022-10-16T11:08:15.797Z,53.23
2022-10-16T11:10:49.811Z,52.84
2022-10-16T11:13:33.117Z,52.20
2022-10-16T11:16:04.380Z,51.55
2022-10-16T11:18:40.781Z,53.22
2022-10-16T11:21:11.027Z,53.16
2022-10-16T11:23:43.694Z,52.75
2022-10-16T11:26:17.733Z,52.47
2022-10-16T11:28:49.161Z,52.96
2022-10-16T11:31:21.300Z,51.86
2022-10-16T11:33:55.715Z,52.03
2022-10-16T11:36:26.915Z,52.51
2022-10-16T11:39:01.496Z,51.80
2022-10-16T11:41:33.008Z,51.55
2022-10-16T11:44:18.255Z,51.54
2022-10-16T11:47:00.704Z,52.01
2022-10-16T11:49:40.639Z,51.45
2022-10-16T11:52:16.146Z,52.72
2022-10-16T11:54:48.475Z,53.24
2022-10-16T11:57:19.170Z,52.24
2022-10-16T11:59:52.196Z,52.42
2022-10-16T12:02:33.620Z,52.59
2022-10-16T12:05:12.040Z,50.99
2022-10-16T12:07:45.685Z,50.77
2022-10-16T12:10:26.690Z,50.77
2022-10-16T12:12:54.744Z,50.70
2022-10-16T12:15:35.214Z,50.57
2022-10-16T12:18:22.566Z,50.67
2022-10-16T12:20:56.177Z,50.95
2022-10-16T12:23:22.884Z,51.64
2022-10-16T12:25:57.985Z,50.69
2022-10-16T12:28:28.938Z,49.74
2022-10-16T12:30:58.029Z,51.21
2022-10-16T12:33:27.375Z,50.88
2022-10-16T12:35:54.836Z,49.59
2022-10-16T12:38:26.203Z,48.50
2022-10-16T12:41:00.424Z,48.83
2022-10-16T12:43:37.135Z,48.99
2022-10-16T12:46:06.613Z,48.81
2022-10-16T12:48:48.178Z,49.07
2022-10-16T12:51:25.924Z,48.81
2022-10-16T12:54:02.271Z,48.77
2022-10-16T12:59:23.244Z,48.94
2022-10-16T13:02:03.584Z,49.07
2022-10-16T13:05:03.488Z,48.93
2022-10-16T13:07:45.408Z,48.65
2022-10-16T13:10:21.476Z,49.27
2022-10-16T13:13:07.308Z,49.00
2022-10-16T13:15:49.432Z,47.43
2022-10-16T13:18:20.340Z,47.70
2022-10-16T13:21:03.199Z,47.00
2022-10-16T13:23:37.526Z,47.68
2022-10-16T13:26:14.178Z,46.22
2022-10-16T13:28:42.261Z,45.73
2022-10-16T13:31:17.593Z,46.54
2022-10-16T13:33:48.477Z,46.89
2022-10-16T13:36:23.558Z,46.61
2022-10-16T13:39:01.096Z,46.71
2022-10-16T13:41:27.512Z,46.17
2022-10-16T13:43:57.605Z,46.83
2022-10-16T13:46:26.135Z,47.29
2022-10-16T13:48:59.825Z,48.85
2022-10-16T13:51:27.067Z,47.36
2022-10-16T13:53:55.684Z,47.00
2022-10-16T13:56:23.559Z,47.12
2022-10-16T13:59:00.589Z,47.88
2022-10-16T14:01:32.473Z,47.69
2022-10-16T14:04:04.847Z,48.92
2022-10-16T14:06:31.712Z,48.16
2022-10-16T14:09:02.608Z,47.55
2022-10-16T14:11:30.092Z,48.17
2022-10-16T14:13:56.760Z,49.63
2022-10-16T14:16:27.897Z,48.67
2022-10-16T14:18:58.734Z,48.67
2022-10-16T14:21:25.626Z,47.81
2022-10-16T14:23:52.165Z,48.19
2022-10-16T14:26:21.861Z,49.78
2022-10-16T14:28:50.208Z,48.95
2022-10-16T14:31:39.343Z,48.95
2022-10-16T14:34:06.152Z,48.79
2022-10-16T14:36:34.542Z,50.32
2022-10-16T14:39:04.370Z,49.82
2022-10-16T14:41:32.461Z,50.24
2022-10-16T14:44:03.250Z,49.52
2022-10-16T14:46:33.745Z,49.35
2022-10-16T14:49:13.593Z,48.75
2022-10-16T14:51:41.703Z,48.96
2022-10-16T14:54:09.577Z,49.93
2022-10-16T14:56:46.202Z,50.05
2022-10-16T14:59:17.409Z,49.67
2022-10-16T15:01:44.024Z,52.05
2022-10-16T15:04:13.580Z,51.02
2022-10-16T15:06:40.221Z,50.82
2022-10-16T15:09:06.733Z,50.82
2022-10-16T15:11:33.740Z,51.44
2022-10-16T15:14:00.190Z,50.89
2022-10-16T15:16:26.670Z,49.93
2022-10-16T15:18:53.056Z,51.08
2022-10-16T15:21:25.015Z,51.04
2022-10-16T15:23:51.488Z,51.82
2022-10-16T15:26:17.919Z,50.92
2022-10-16T15:28:44.828Z,51.50
2022-10-16T15:31:11.322Z,49.72
2022-10-16T15:33:39.901Z,50.33
2022-10-16T15:36:07.483Z,51.17
2022-10-16T15:38:35.682Z,52.01
2022-10-16T15:41:02.289Z,51.97
2022-10-16T15:43:29.011Z,52.11
2022-10-16T15:46:00.843Z,51.76
2022-10-16T15:48:27.648Z,51.89
2022-10-16T15:50:54.195Z,51.16
2022-10-16T15:53:20.645Z,51.50
2022-10-16T15:55:48.453Z,53.27
2022-10-16T15:58:14.935Z,52.37
2022-10-16T16:00:41.384Z,51.56
2022-10-16T16:03:07.856Z,51.49
2022-10-16T16:05:34.336Z,52.82
2022-10-16T16:08:00.792Z,52.52
2022-10-16T16:10:27.354Z,52.81
2022-10-16T16:12:55.175Z,52.51
2022-10-16T16:15:22.922Z,54.19
2022-10-16T16:17:49.356Z,54.81
2022-10-16T16:20:16.304Z,55.62
2022-10-16T16:22:42.725Z,56.06
2022-10-16T16:25:09.694Z,57.50
2022-10-16T16:27:36.263Z,58.60
2022-10-16T16:30:04.896Z,58.03
2022-10-16T16:32:31.525Z,58.87
2022-10-16T16:34:58.035Z,59.03
2022-10-16T16:37:24.731Z,60.95
2022-10-16T16:39:51.955Z,59.55
2022-10-16T16:42:18.455Z,60.71
2022-10-16T16:44:44.845Z,60.66
2022-10-16T16:47:12.604Z,62.13
2022-10-16T16:49:39.077Z,61.22
2022-10-16T16:52:05.483Z,61.55
2022-10-16T16:54:32.306Z,62.26
2022-10-16T16:56:58.714Z,62.66
2022-10-16T17:02:18.161Z,62.17
2022-10-16T17:04:44.635Z,62.19
2022-10-16T17:07:11.072Z,64.81
2022-10-16T17:09:37.520Z,63.65
2022-10-16T17:12:04.372Z,62.04
2022-10-16T17:14:30.869Z,62.08
2022-10-16T17:16:57.311Z,61.41
2022-10-16T17:30:49.317Z,62.31
2022-10-16T17:33:15.748Z,62.55
2022-10-16T17:35:45.613Z,61.74
2022-10-16T17:38:13.717Z,61.78
2022-10-16T17:40:40.875Z,61.92
2022-10-16T17:43:07.370Z,62.14
2022-10-16T17:45:37.626Z,63.68
2022-10-16T17:48:04.561Z,64.44
2022-10-16T17:50:31.024Z,66.70
2022-10-16T17:52:58.876Z,64.71
2022-10-16T17:55:27.221Z,64.40
2022-10-16T17:57:54.118Z,63.59
2022-10-16T18:00:20.745Z,64.64
2022-10-16T18:02:49.356Z,63.60
2022-10-16T18:05:16.295Z,64.11
2022-10-16T18:07:42.804Z,64.03
2022-10-16T18:10:11.841Z,64.17
2022-10-16T18:12:38.843Z,63.59
2022-10-16T18:15:06.615Z,64.43
2022-10-16T18:17:34.891Z,64.07
2022-10-16T18:20:01.417Z,64.08
2022-10-16T18:22:27.871Z,63.36
2022-10-16T18:24:54.311Z,63.58
2022-10-16T18:27:22.092Z,64.26
2022-10-16T18:29:48.514Z,63.83
2022-10-16T18:32:14.961Z,63.85
2022-10-16T18:34:41.386Z,63.70
2022-10-16T18:37:07.935Z,64.64
2022-10-16T18:39:34.366Z,63.96
2022-10-16T18:42:00.763Z,64.43
2022-10-16T18:44:28.647Z,63.84
2022-10-16T18:46:55.112Z,63.28
2022-10-16T18:49:21.552Z,63.50
2022-10-16T18:51:48.067Z,65.28
2022-10-16T18:54:14.515Z,65.99
2022-10-16T18:56:41.016Z,65.22
2022-10-16T18:59:08.650Z,65.20
2022-10-16T19:01:37.528Z,68.19
2022-10-16T19:04:06.190Z,66.57
2022-10-16T19:06:34.634Z,66.56
2022-10-16T19:09:01.084Z,66.36
2022-10-16T19:11:27.624Z,66.74
2022-10-16T19:13:56.127Z,66.44
2022-10-16T19:16:24.520Z,65.50
2022-10-16T19:18:54.385Z,65.22
2022-10-16T19:21:21.376Z,64.64
2022-10-16T19:23:51.623Z,66.42
2022-10-16T19:26:19.596Z,65.32
2022-10-16T19:28:46.514Z,66.07
2022-10-16T19:31:15.269Z,66.33
2022-10-16T19:33:42.032Z,66.40
2022-10-16T19:36:11.425Z,65.86
2022-10-16T19:38:38.342Z,65.98
2022-10-16T19:41:06.032Z,65.93
2022-10-16T19:43:32.444Z,64.87
2022-10-16T19:46:03.413Z,66.12
2022-10-16T19:48:29.995Z,65.70
2022-10-16T19:50:56.425Z,66.65
2022-10-16T19:53:25.255Z,65.95
2022-10-16T19:55:51.681Z,66.87
2022-10-16T19:58:18.099Z,66.33
2022-10-16T20:00:44.550Z,66.16
2022-10-16T20:03:10.996Z,65.72
2022-10-16T20:05:37.402Z,66.39
2022-10-16T20:08:03.962Z,66.06
2022-10-16T20:10:31.845Z,66.50
2022-10-16T20:12:58.244Z,66.66
2022-10-16T20:15:24.621Z,65.57
2022-10-16T20:20:43.863Z,64.96
2022-10-16T20:23:10.618Z,65.78
2022-10-16T20:25:39.436Z,65.03
2022-10-16T20:28:07.070Z,65.04
2022-10-16T20:30:34.386Z,63.89
2022-10-16T20:33:00.853Z,64.38
2022-10-16T20:35:27.289Z,64.55
2022-10-16T20:37:53.714Z,63.53
2022-10-16T20:40:20.123Z,64.02
2022-10-16T20:42:47.865Z,63.88
2022-10-16T20:45:14.267Z,63.92
2022-10-16T20:47:40.639Z,64.27
2022-10-16T20:50:07.687Z,63.89
2022-10-16T20:52:34.326Z,63.53
2022-10-16T20:55:00.874Z,63.98
2022-10-16T20:57:27.399Z,64.19
2022-10-16T20:59:55.319Z,63.55
2022-10-16T21:04:49.473Z,64.22
2022-10-16T21:07:16.152Z,63.60
2022-10-16T21:09:42.752Z,63.93
2022-10-16T21:12:09.479Z,64.12
2022-10-16T21:14:42.108Z,63.89
2022-10-16T21:17:10.395Z,64.62
2022-10-16T21:19:36.805Z,65.19
2022-10-16T21:22:03.253Z,64.99
2022-10-16T21:24:29.852Z,65.80
2022-10-16T21:26:56.304Z,64.86
2022-10-16T21:29:22.740Z,64.22
2022-10-16T21:31:49.161Z,63.23
2022-10-16T21:34:16.922Z,63.48
2022-10-16T21:36:43.367Z,64.30
2022-10-16T21:39:11.252Z,64.09
2022-10-16T21:41:38.078Z,63.91
2022-10-16T21:44:05.686Z,63.43
2022-10-16T21:46:34.965Z,63.89
2022-10-16T21:49:04.775Z,64.88
2022-10-16T21:51:34.086Z,64.43
2022-10-16T21:54:00.984Z,64.55
2022-10-16T21:56:27.964Z,65.55
2022-10-16T21:58:54.556Z,66.20
2022-10-16T22:01:23.157Z,67.19
2022-10-16T22:03:50.027Z,67.13
2022-10-16T22:06:18.774Z,68.80
2022-10-16T22:08:48.825Z,68.26
2022-10-16T22:11:21.502Z,67.42
2022-10-16T22:13:52.638Z,69.90
2022-10-16T22:16:23.116Z,72.82
2022-10-16T22:18:51.815Z,73.56
2022-10-16T22:21:18.456Z,76.00
2022-10-16T22:23:46.206Z,75.61
2022-10-16T22:26:13.276Z,74.83
2022-10-16T22:28:40.912Z,72.46
2022-10-16T22:31:10.047Z,72.77
2022-10-16T22:33:36.638Z,75.11
2022-10-16T22:36:05.112Z,74.93
2022-10-16T22:38:32.472Z,75.82
2022-10-16T22:41:04.422Z,76.42
2022-10-16T22:43:31.194Z,74.45
2022-10-16T22:46:02.219Z,73.28
2022-10-16T22:48:28.700Z,72.83
2022-10-16T22:50:55.248Z,75.75
2022-10-16T22:53:21.663Z,74.92
2022-10-16T22:55:48.068Z,74.54
2022-10-16T22:58:15.843Z,75.87
2022-10-16T23:00:42.866Z,76.08
2022-10-16T23:03:09.411Z,75.07
2022-10-16T23:05:38.525Z,74.58
2022-10-16T23:08:05.582Z,73.63
2022-10-16T23:10:32.021Z,76.75
2022-10-16T23:12:58.447Z,76.92
2022-10-16T23:15:26.184Z,78.05
2022-10-16T23:17:52.579Z,78.11
2022-10-16T23:20:19.052Z,76.56
2022-10-16T23:22:45.447Z,76.42
2022-10-16T23:25:11.862Z,78.78
2022-10-16T23:27:38.271Z,80.51
2022-10-16T23:30:05.465Z,80.58
2022-10-16T23:32:33.503Z,80.81
2022-10-16T23:34:59.903Z,78.23
2022-10-16T23:37:26.557Z,76.96
2022-10-16T23:39:52.960Z,78.06
2022-10-16T23:42:19.874Z,76.77
2022-10-16T23:44:46.310Z,76.60
2022-10-16T23:47:12.838Z,77.33
2022-10-16T23:49:40.605Z,78.13
2022-10-16T23:52:07.019Z,77.44
2022-10-16T23:54:33.454Z,76.61
2022-10-16T23:56:59.867Z,76.98
2022-10-16T23:59:26.280Z,76.86
